sensor_id;sensor_type;location;lat;lon;timestamp;P1;durP1;ratioP1;P2;durP2;ratioP2
15818;SDS011;8010;53.986;12.106;2023-02-28T00:00:45;9.67;;;4.87;;
15818;SDS011;8010;53.986;12.106;2023-02-28T00:03:11;10.77;;;4.70;;
15818;SDS011;8010;53.986;12.106;2023-02-28T00:05:36;6.00;;;4.17;;
15818;SDS011;8010;53.986;12.106;2023-02-28T00:08:02;8.13;;;4.27;;
15818;SDS011;8010;53.986;12.106;2023-02-28T00:10:28;7.17;;;4.60;;
15818;SDS011;8010;53.986;12.106;2023-02-28T00:12:58;7.20;;;4.77;;
15818;SDS011;8010;53.986;12.106;2023-02-28T00:15:26;7.33;;;4.63;;
15818;SDS011;8010;53.986;12.106;2023-02-28T00:17:52;6.73;;;3.80;;
15818;SDS011;8010;53.986;12.106;2023-02-28T00:20:18;7.80;;;4.53;;
15818;SDS011;8010;53.986;12.106;2023-02-28T00:22:45;8.43;;;4.13;;
15818;SDS011;8010;53.986;12.106;2023-02-28T00:25:13;9.40;;;4.40;;
15818;SDS011;8010;53.986;12.106;2023-02-28T00:27:41;10.90;;;4.47;;
15818;SDS011;8010;53.986;12.106;2023-02-28T00:30:08;7.20;;;4.53;;
15818;SDS011;8010;53.986;12.106;2023-02-28T00:32:36;9.23;;;4.70;;
15818;SDS011;8010;53.986;12.106;2023-02-28T00:35:02;8.07;;;4.80;;
15818;SDS011;8010;53.986;12.106;2023-02-28T00:37:28;8.03;;;4.73;;
15818;SDS011;8010;53.986;12.106;2023-02-28T00:39:53;7.67;;;4.50;;
15818;SDS011;8010;53.986;12.106;2023-02-28T00:42:19;7.33;;;3.87;;
15818;SDS011;8010;53.986;12.106;2023-02-28T00:44:44;8.37;;;4.47;;
15818;SDS011;8010;53.986;12.106;2023-02-28T00:47:10;8.27;;;4.53;;
15818;SDS011;8010;53.986;12.106;2023-02-28T00:49:36;10.03;;;4.63;;
15818;SDS011;8010;53.986;12.106;2023-02-28T00:52:01;5.97;;;3.87;;
15818;SDS011;8010;53.986;12.106;2023-02-28T00:54:27;7.07;;;4.07;;
15818;SDS011;8010;53.986;12.106;2023-02-28T00:56:53;8.33;;;4.10;;
15818;SDS011;8010;53.986;12.106;2023-02-28T00:59:18;9.57;;;4.57;;
15818;SDS011;8010;53.986;12.106;2023-02-28T01:01:45;7.10;;;4.17;;
15818;SDS011;8010;53.986;12.106;2023-02-28T01:04:11;8.03;;;4.27;;
15818;SDS011;8010;53.986;12.106;2023-02-28T01:06:38;6.77;;;3.93;;
15818;SDS011;8010;53.986;12.106;2023-02-28T01:09:04;5.53;;;3.30;;
15818;SDS011;8010;53.986;12.106;2023-02-28T01:11:31;5.13;;;3.23;;
15818;SDS011;8010;53.986;12.106;2023-02-28T01:13:57;5.07;;;3.07;;
15818;SDS011;8010;53.986;12.106;2023-02-28T01:16:23;7.40;;;3.17;;
15818;SDS011;8010;53.986;12.106;2023-02-28T01:18:49;6.30;;;3.43;;
15818;SDS011;8010;53.986;12.106;2023-02-28T01:21:16;6.40;;;3.50;;
15818;SDS011;8010;53.986;12.106;2023-02-28T01:23:43;6.80;;;3.60;;
15818;SDS011;8010;53.986;12.106;2023-02-28T01:26:10;6.43;;;3.70;;
15818;SDS011;8010;53.986;12.106;2023-02-28T01:28:39;9.37;;;4.60;;
15818;SDS011;8010;53.986;12.106;2023-02-28T01:31:04;13.30;;;5.07;;
15818;SDS011;8010;53.986;12.106;2023-02-28T01:33:30;8.93;;;4.37;;
15818;SDS011;8010;53.986;12.106;2023-02-28T01:36:00;7.90;;;4.93;;
15818;SDS011;8010;53.986;12.106;2023-02-28T01:38:27;7.30;;;3.60;;
15818;SDS011;8010;53.986;12.106;2023-02-28T01:40:52;8.87;;;4.43;;
15818;SDS011;8010;53.986;12.106;2023-02-28T01:45:50;8.57;;;4.30;;
15818;SDS011;8010;53.986;12.106;2023-02-28T01:48:16;10.37;;;4.43;;
15818;SDS011;8010;53.986;12.106;2023-02-28T01:50:43;6.33;;;3.60;;
15818;SDS011;8010;53.986;12.106;2023-02-28T01:53:13;5.83;;;3.80;;
15818;SDS011;8010;53.986;12.106;2023-02-28T01:55:42;5.57;;;3.43;;
15818;SDS011;8010;53.986;12.106;2023-02-28T01:58:12;6.40;;;3.50;;
15818;SDS011;8010;53.986;12.106;2023-02-28T02:00:38;5.47;;;3.07;;
15818;SDS011;8010;53.986;12.106;2023-02-28T02:03:06;8.73;;;3.57;;
15818;SDS011;8010;53.986;12.106;2023-02-28T02:05:34;5.77;;;3.10;;
15818;SDS011;8010;53.986;12.106;2023-02-28T02:08:03;7.17;;;3.80;;
15818;SDS011;8010;53.986;12.106;2023-02-28T02:10:33;6.03;;;3.50;;
15818;SDS011;8010;53.986;12.106;2023-02-28T02:22:08;8.80;;;3.80;;
15818;SDS011;8010;53.986;12.106;2023-02-28T02:33:10;9.83;;;3.83;;
15818;SDS011;8010;53.986;12.106;2023-02-28T02:35:56;5.47;;;3.23;;
15818;SDS011;8010;53.986;12.106;2023-02-28T02:41:23;5.77;;;3.27;;
15818;SDS011;8010;53.986;12.106;2023-02-28T02:46:47;8.90;;;3.83;;
15818;SDS011;8010;53.986;12.106;2023-02-28T02:49:15;6.47;;;3.50;;
15818;SDS011;8010;53.986;12.106;2023-02-28T02:51:55;6.57;;;3.37;;
15818;SDS011;8010;53.986;12.106;2023-02-28T02:54:30;5.83;;;3.33;;
15818;SDS011;8010;53.986;12.106;2023-02-28T02:57:03;5.00;;;3.40;;
15818;SDS011;8010;53.986;12.106;2023-02-28T02:59:33;5.17;;;3.43;;
15818;SDS011;8010;53.986;12.106;2023-02-28T03:02:04;5.43;;;3.50;;
15818;SDS011;8010;53.986;12.106;2023-02-28T03:04:34;5.60;;;3.63;;
15818;SDS011;8010;53.986;12.106;2023-02-28T03:07:10;6.60;;;4.17;;
15818;SDS011;8010;53.986;12.106;2023-02-28T03:09:35;5.83;;;3.60;;
15818;SDS011;8010;53.986;12.106;2023-02-28T03:12:01;7.27;;;3.57;;
15818;SDS011;8010;53.986;12.106;2023-02-28T03:17:47;5.60;;;3.20;;
15818;SDS011;8010;53.986;12.106;2023-02-28T03:23:03;6.53;;;3.37;;
15818;SDS011;8010;53.986;12.106;2023-02-28T03:31:32;3.70;;;2.70;;
15818;SDS011;8010;53.986;12.106;2023-02-28T03:34:10;7.13;;;3.47;;
15818;SDS011;8010;53.986;12.106;2023-02-28T03:36:49;8.67;;;3.50;;
15818;SDS011;8010;53.986;12.106;2023-02-28T03:39:23;5.40;;;2.90;;
15818;SDS011;8010;53.986;12.106;2023-02-28T03:41:57;5.93;;;3.33;;
15818;SDS011;8010;53.986;12.106;2023-02-28T03:44:27;5.87;;;3.10;;
15818;SDS011;8010;53.986;12.106;2023-02-28T03:47:08;7.43;;;3.77;;
15818;SDS011;8010;53.986;12.106;2023-02-28T03:49:40;4.77;;;2.50;;
15818;SDS011;8010;53.986;12.106;2023-02-28T03:52:12;6.73;;;3.10;;
15818;SDS011;8010;53.986;12.106;2023-02-28T03:54:43;4.83;;;3.03;;
15818;SDS011;8010;53.986;12.106;2023-02-28T03:57:15;4.70;;;3.27;;
15818;SDS011;8010;53.986;12.106;2023-02-28T03:59:49;6.27;;;3.43;;
15818;SDS011;8010;53.986;12.106;2023-02-28T04:02:24;6.00;;;3.30;;
15818;SDS011;8010;53.986;12.106;2023-02-28T04:04:49;6.90;;;3.47;;
15818;SDS011;8010;53.986;12.106;2023-02-28T04:07:16;5.03;;;2.63;;
15818;SDS011;8010;53.986;12.106;2023-02-28T04:09:42;6.00;;;3.10;;
15818;SDS011;8010;53.986;12.106;2023-02-28T04:12:08;4.40;;;2.87;;
15818;SDS011;8010;53.986;12.106;2023-02-28T04:14:34;6.10;;;3.43;;
15818;SDS011;8010;53.986;12.106;2023-02-28T04:16:59;5.53;;;2.90;;
15818;SDS011;8010;53.986;12.106;2023-02-28T04:19:25;6.77;;;2.90;;
15818;SDS011;8010;53.986;12.106;2023-02-28T04:21:51;7.37;;;3.40;;
15818;SDS011;8010;53.986;12.106;2023-02-28T04:24:27;5.77;;;3.07;;
15818;SDS011;8010;53.986;12.106;2023-02-28T04:26:53;5.37;;;2.97;;
15818;SDS011;8010;53.986;12.106;2023-02-28T04:29:22;4.57;;;3.17;;
15818;SDS011;8010;53.986;12.106;2023-02-28T04:31:50;6.17;;;3.03;;
15818;SDS011;8010;53.986;12.106;2023-02-28T04:34:18;5.90;;;3.30;;
15818;SDS011;8010;53.986;12.106;2023-02-28T04:36:44;3.47;;;2.70;;
15818;SDS011;8010;53.986;12.106;2023-02-28T04:39:10;9.23;;;2.90;;
15818;SDS011;8010;53.986;12.106;2023-02-28T04:41:36;3.57;;;2.63;;
15818;SDS011;8010;53.986;12.106;2023-02-28T04:44:02;4.80;;;3.00;;
15818;SDS011;8010;53.986;12.106;2023-02-28T04:46:28;6.13;;;3.43;;
15818;SDS011;8010;53.986;12.106;2023-02-28T04:48:55;5.07;;;3.17;;
15818;SDS011;8010;53.986;12.106;2023-02-28T04:51:20;5.53;;;3.47;;
15818;SDS011;8010;53.986;12.106;2023-02-28T04:53:46;3.77;;;2.80;;
15818;SDS011;8010;53.986;12.106;2023-02-28T04:56:13;3.63;;;2.53;;
15818;SDS011;8010;53.986;12.106;2023-02-28T04:58:40;5.97;;;3.40;;
15818;SDS011;8010;53.986;12.106;2023-02-28T05:01:13;7.47;;;3.07;;
15818;SDS011;8010;53.986;12.106;2023-02-28T05:03:41;5.50;;;2.63;;
15818;SDS011;8010;53.986;12.106;2023-02-28T05:06:08;6.13;;;2.70;;
15818;SDS011;8010;53.986;12.106;2023-02-28T05:08:34;5.17;;;3.17;;
15818;SDS011;8010;53.986;12.106;2023-02-28T05:11:00;5.47;;;2.90;;
15818;SDS011;8010;53.986;12.106;2023-02-28T05:13:27;5.27;;;2.90;;
15818;SDS011;8010;53.986;12.106;2023-02-28T05:15:53;4.60;;;3.00;;
15818;SDS011;8010;53.986;12.106;2023-02-28T05:18:18;6.67;;;3.20;;
15818;SDS011;8010;53.986;12.106;2023-02-28T05:20:44;6.60;;;3.23;;
15818;SDS011;8010;53.986;12.106;2023-02-28T05:23:11;6.23;;;3.07;;
15818;SDS011;8010;53.986;12.106;2023-02-28T05:25:37;5.97;;;2.70;;
15818;SDS011;8010;53.986;12.106;2023-02-28T05:28:03;4.13;;;2.97;;
15818;SDS011;8010;53.986;12.106;2023-02-28T05:30:29;8.07;;;3.10;;
15818;SDS011;8010;53.986;12.106;2023-02-28T05:32:55;9.50;;;3.20;;
15818;SDS011;8010;53.986;12.106;2023-02-28T05:35:20;3.90;;;2.40;;
15818;SDS011;8010;53.986;12.106;2023-02-28T05:37:46;2.90;;;2.10;;
15818;SDS011;8010;53.986;12.106;2023-02-28T05:40:11;5.93;;;3.33;;
15818;SDS011;8010;53.986;12.106;2023-02-28T05:42:37;5.17;;;3.20;;
15818;SDS011;8010;53.986;12.106;2023-02-28T05:45:04;6.97;;;2.57;;
15818;SDS011;8010;53.986;12.106;2023-02-28T05:47:30;7.00;;;3.30;;
15818;SDS011;8010;53.986;12.106;2023-02-28T05:49:56;7.33;;;3.83;;
15818;SDS011;8010;53.986;12.106;2023-02-28T05:52:21;7.60;;;3.77;;
15818;SDS011;8010;53.986;12.106;2023-02-28T05:54:47;5.17;;;3.37;;
15818;SDS011;8010;53.986;12.106;2023-02-28T05:57:13;13.13;;;5.70;;
15818;SDS011;8010;53.986;12.106;2023-02-28T05:59:38;9.80;;;5.60;;
15818;SDS011;8010;53.986;12.106;2023-02-28T06:02:05;5.87;;;4.73;;
15818;SDS011;8010;53.986;12.106;2023-02-28T06:04:35;4.67;;;3.50;;
15818;SDS011;8010;53.986;12.106;2023-02-28T06:07:00;7.87;;;4.03;;
15818;SDS011;8010;53.986;12.106;2023-02-28T06:09:26;7.93;;;3.53;;
15818;SDS011;8010;53.986;12.106;2023-02-28T06:11:52;6.03;;;3.80;;
15818;SDS011;8010;53.986;12.106;2023-02-28T06:14:18;5.10;;;3.37;;
15818;SDS011;8010;53.986;12.106;2023-02-28T06:16:44;6.33;;;2.60;;
15818;SDS011;8010;53.986;12.106;2023-02-28T06:19:10;7.50;;;3.50;;
15818;SDS011;8010;53.986;12.106;2023-02-28T06:21:36;6.20;;;3.67;;
15818;SDS011;8010;53.986;12.106;2023-02-28T06:24:02;5.90;;;3.40;;
15818;SDS011;8010;53.986;12.106;2023-02-28T06:26:29;4.43;;;3.10;;
15818;SDS011;8010;53.986;12.106;2023-02-28T06:28:55;4.37;;;2.90;;
15818;SDS011;8010;53.986;12.106;2023-02-28T06:31:21;6.63;;;3.63;;
15818;SDS011;8010;53.986;12.106;2023-02-28T06:33:47;8.03;;;4.10;;
15818;SDS011;8010;53.986;12.106;2023-02-28T06:36:12;8.63;;;4.33;;
15818;SDS011;8010;53.986;12.106;2023-02-28T06:38:39;4.30;;;3.10;;
15818;SDS011;8010;53.986;12.106;2023-02-28T06:41:06;7.43;;;3.80;;
15818;SDS011;8010;53.986;12.106;2023-02-28T06:43:37;6.20;;;4.13;;
15818;SDS011;8010;53.986;12.106;2023-02-28T06:46:05;9.23;;;3.40;;
15818;SDS011;8010;53.986;12.106;2023-02-28T06:48:33;7.03;;;3.87;;
15818;SDS011;8010;53.986;12.106;2023-02-28T06:51:06;4.87;;;3.77;;
15818;SDS011;8010;53.986;12.106;2023-02-28T06:53:43;8.50;;;3.80;;
15818;SDS011;8010;53.986;12.106;2023-02-28T06:56:13;6.50;;;4.10;;
15818;SDS011;8010;53.986;12.106;2023-02-28T06:58:40;9.30;;;3.90;;
15818;SDS011;8010;53.986;12.106;2023-02-28T07:01:06;8.70;;;4.13;;
15818;SDS011;8010;53.986;12.106;2023-02-28T07:03:32;7.73;;;4.10;;
15818;SDS011;8010;53.986;12.106;2023-02-28T07:06:00;8.43;;;3.57;;
15818;SDS011;8010;53.986;12.106;2023-02-28T07:08:26;8.17;;;4.10;;
15818;SDS011;8010;53.986;12.106;2023-02-28T07:10:53;9.77;;;5.53;;
15818;SDS011;8010;53.986;12.106;2023-02-28T07:13:21;7.40;;;4.60;;
15818;SDS011;8010;53.986;12.106;2023-02-28T07:15:57;6.97;;;4.57;;
15818;SDS011;8010;53.986;12.106;2023-02-28T07:18:24;7.03;;;4.77;;
15818;SDS011;8010;53.986;12.106;2023-02-28T07:20:49;8.50;;;4.60;;
15818;SDS011;8010;53.986;12.106;2023-02-28T07:23:15;11.33;;;4.73;;
15818;SDS011;8010;53.986;12.106;2023-02-28T07:25:41;5.77;;;4.13;;
15818;SDS011;8010;53.986;12.106;2023-02-28T07:28:07;9.43;;;4.43;;
15818;SDS011;8010;53.986;12.106;2023-02-28T07:30:32;6.17;;;4.17;;
15818;SDS011;8010;53.986;12.106;2023-02-28T07:32:58;7.20;;;4.97;;
15818;SDS011;8010;53.986;12.106;2023-02-28T07:35:24;8.43;;;4.50;;
15818;SDS011;8010;53.986;12.106;2023-02-28T07:37:49;11.03;;;4.17;;
15818;SDS011;8010;53.986;12.106;2023-02-28T07:40:15;6.87;;;4.43;;
15818;SDS011;8010;53.986;12.106;2023-02-28T07:42:42;8.70;;;4.70;;
15818;SDS011;8010;53.986;12.106;2023-02-28T07:45:08;8.27;;;5.20;;
15818;SDS011;8010;53.986;12.106;2023-02-28T07:47:37;7.90;;;5.10;;
15818;SDS011;8010;53.986;12.106;2023-02-28T07:50:03;8.50;;;5.10;;
15818;SDS011;8010;53.986;12.106;2023-02-28T07:52:30;7.17;;;5.10;;
15818;SDS011;8010;53.986;12.106;2023-02-28T07:54:55;8.93;;;5.27;;
15818;SDS011;8010;53.986;12.106;2023-02-28T07:57:21;10.47;;;5.03;;
15818;SDS011;8010;53.986;12.106;2023-02-28T07:59:47;6.73;;;4.87;;
15818;SDS011;8010;53.986;12.106;2023-02-28T08:02:16;10.70;;;5.47;;
15818;SDS011;8010;53.986;12.106;2023-02-28T08:04:42;6.87;;;4.43;;
15818;SDS011;8010;53.986;12.106;2023-02-28T08:07:08;8.17;;;5.43;;
15818;SDS011;8010;53.986;12.106;2023-02-28T08:09:38;9.40;;;5.23;;
15818;SDS011;8010;53.986;12.106;2023-02-28T08:12:08;8.07;;;4.77;;
15818;SDS011;8010;53.986;12.106;2023-02-28T08:14:34;10.57;;;5.73;;
15818;SDS011;8010;53.986;12.106;2023-02-28T08:17:00;9.43;;;4.90;;
15818;SDS011;8010;53.986;12.106;2023-02-28T08:19:26;7.13;;;4.57;;
15818;SDS011;8010;53.986;12.106;2023-02-28T08:21:51;8.30;;;4.93;;
15818;SDS011;8010;53.986;12.106;2023-02-28T08:24:17;10.60;;;5.20;;
15818;SDS011;8010;53.986;12.106;2023-02-28T08:26:42;8.70;;;5.00;;
15818;SDS011;8010;53.986;12.106;2023-02-28T08:29:08;6.77;;;5.20;;
15818;SDS011;8010;53.986;12.106;2023-02-28T08:31:33;6.83;;;4.70;;
15818;SDS011;8010;53.986;12.106;2023-02-28T08:34:00;9.23;;;5.30;;
15818;SDS011;8010;53.986;12.106;2023-02-28T08:36:36;10.13;;;4.93;;
15818;SDS011;8010;53.986;12.106;2023-02-28T08:39:02;10.17;;;4.83;;
15818;SDS011;8010;53.986;12.106;2023-02-28T08:41:28;7.93;;;5.40;;
15818;SDS011;8010;53.986;12.106;2023-02-28T08:43:54;8.97;;;6.13;;
15818;SDS011;8010;53.986;12.106;2023-02-28T08:46:19;8.70;;;5.57;;
15818;SDS011;8010;53.986;12.106;2023-02-28T08:48:45;12.10;;;5.63;;
15818;SDS011;8010;53.986;12.106;2023-02-28T08:51:12;7.37;;;5.07;;
15818;SDS011;8010;53.986;12.106;2023-02-28T08:53:42;13.10;;;5.97;;
15818;SDS011;8010;53.986;12.106;2023-02-28T08:56:09;12.27;;;5.67;;
15818;SDS011;8010;53.986;12.106;2023-02-28T08:58:37;7.87;;;4.60;;
15818;SDS011;8010;53.986;12.106;2023-02-28T09:01:13;6.27;;;3.80;;
15818;SDS011;8010;53.986;12.106;2023-02-28T09:03:46;9.53;;;4.30;;
15818;SDS011;8010;53.986;12.106;2023-02-28T09:06:13;7.87;;;4.20;;
15818;SDS011;8010;53.986;12.106;2023-02-28T09:08:40;9.00;;;4.23;;
15818;SDS011;8010;53.986;12.106;2023-02-28T09:11:05;8.50;;;4.10;;
15818;SDS011;8010;53.986;12.106;2023-02-28T09:13:32;6.57;;;4.00;;
15818;SDS011;8010;53.986;12.106;2023-02-28T09:15:58;5.67;;;4.30;;
15818;SDS011;8010;53.986;12.106;2023-02-28T09:18:25;6.30;;;4.10;;
15818;SDS011;8010;53.986;12.106;2023-02-28T09:20:51;8.97;;;3.77;;
15818;SDS011;8010;53.986;12.106;2023-02-28T09:23:17;8.40;;;3.73;;
15818;SDS011;8010;53.986;12.106;2023-02-28T09:26:01;5.53;;;3.53;;
15818;SDS011;8010;53.986;12.106;2023-02-28T09:28:27;5.17;;;3.53;;
15818;SDS011;8010;53.986;12.106;2023-02-28T09:30:53;5.33;;;3.30;;
15818;SDS011;8010;53.986;12.106;2023-02-28T09:33:20;7.03;;;3.40;;
15818;SDS011;8010;53.986;12.106;2023-02-28T09:35:46;5.47;;;3.40;;
15818;SDS011;8010;53.986;12.106;2023-02-28T09:38:15;6.10;;;3.60;;
15818;SDS011;8010;53.986;12.106;2023-02-28T09:40:52;6.13;;;3.33;;
15818;SDS011;8010;53.986;12.106;2023-02-28T09:43:21;5.20;;;3.10;;
15818;SDS011;8010;53.986;12.106;2023-02-28T09:45:51;4.87;;;2.57;;
15818;SDS011;8010;53.986;12.106;2023-02-28T09:48:25;6.20;;;3.10;;
15818;SDS011;8010;53.986;12.106;2023-02-28T09:51:03;4.03;;;2.57;;
15818;SDS011;8010;53.986;12.106;2023-02-28T09:53:38;3.43;;;2.67;;
15818;SDS011;8010;53.986;12.106;2023-02-28T09:56:08;4.00;;;2.93;;
15818;SDS011;8010;53.986;12.106;2023-02-28T10:06:46;5.30;;;2.90;;
15818;SDS011;8010;53.986;12.106;2023-02-28T10:09:24;4.63;;;3.13;;
15818;SDS011;8010;53.986;12.106;2023-02-28T10:11:56;6.37;;;2.90;;
15818;SDS011;8010;53.986;12.106;2023-02-28T10:14:28;3.60;;;2.40;;
15818;SDS011;8010;53.986;12.106;2023-02-28T10:16:55;4.77;;;2.57;;
15818;SDS011;8010;53.986;12.106;2023-02-28T10:22:09;4.23;;;2.50;;
15818;SDS011;8010;53.986;12.106;2023-02-28T10:24:39;4.77;;;2.50;;
15818;SDS011;8010;53.986;12.106;2023-02-28T10:27:15;6.23;;;3.40;;
15818;SDS011;8010;53.986;12.106;2023-02-28T10:29:44;6.07;;;2.60;;
15818;SDS011;8010;53.986;12.106;2023-02-28T10:32:14;6.40;;;2.73;;
15818;SDS011;8010;53.986;12.106;2023-02-28T10:34:42;3.97;;;2.40;;
15818;SDS011;8010;53.986;12.106;2023-02-28T10:37:07;4.33;;;2.60;;
15818;SDS011;8010;53.986;12.106;2023-02-28T10:39:38;5.97;;;2.80;;
15818;SDS011;8010;53.986;12.106;2023-02-28T10:42:20;6.53;;;3.27;;
15818;SDS011;8010;53.986;12.106;2023-02-28T10:47:41;6.03;;;2.43;;
15818;SDS011;8010;53.986;12.106;2023-02-28T10:50:27;4.13;;;2.90;;
15818;SDS011;8010;53.986;12.106;2023-02-28T10:53:10;4.53;;;2.70;;
15818;SDS011;8010;53.986;12.106;2023-02-28T10:58:28;4.70;;;2.80;;
15818;SDS011;8010;53.986;12.106;2023-02-28T11:01:50;5.63;;;2.93;;
15818;SDS011;8010;53.986;12.106;2023-02-28T11:06:51;5.40;;;2.67;;
15818;SDS011;8010;53.986;12.106;2023-02-28T11:09:24;4.57;;;2.90;;
15818;SDS011;8010;53.986;12.106;2023-02-28T11:11:58;3.47;;;2.57;;
15818;SDS011;8010;53.986;12.106;2023-02-28T11:14:25;6.10;;;3.10;;
15818;SDS011;8010;53.986;12.106;2023-02-28T11:17:19;4.17;;;2.70;;
15818;SDS011;8010;53.986;12.106;2023-02-28T11:19:48;3.27;;;2.43;;
15818;SDS011;8010;53.986;12.106;2023-02-28T11:22:18;7.30;;;2.67;;
15818;SDS011;8010;53.986;12.106;2023-02-28T11:24:47;3.77;;;2.13;;
15818;SDS011;8010;53.986;12.106;2023-02-28T11:27:25;2.83;;;1.80;;
15818;SDS011;8010;53.986;12.106;2023-02-28T11:29:51;3.30;;;1.90;;
15818;SDS011;8010;53.986;12.106;2023-02-28T11:32:18;3.70;;;2.00;;
15818;SDS011;8010;53.986;12.106;2023-02-28T11:34:46;4.30;;;2.23;;
15818;SDS011;8010;53.986;12.106;2023-02-28T11:37:27;2.40;;;1.67;;
15818;SDS011;8010;53.986;12.106;2023-02-28T11:39:54;3.73;;;1.50;;
15818;SDS011;8010;53.986;12.106;2023-02-28T11:53:44;2.40;;;1.20;;
15818;SDS011;8010;53.986;12.106;2023-02-28T11:56:19;2.00;;;1.13;;
15818;SDS011;8010;53.986;12.106;2023-02-28T12:01:47;2.70;;;1.07;;
15818;SDS011;8010;53.986;12.106;2023-02-28T12:04:43;3.73;;;1.40;;
15818;SDS011;8010;53.986;12.106;2023-02-28T12:07:38;3.43;;;1.10;;
15818;SDS011;8010;53.986;12.106;2023-02-28T12:10:30;4.20;;;1.20;;
15818;SDS011;8010;53.986;12.106;2023-02-28T12:21:15;1.60;;;1.13;;
15818;SDS011;8010;53.986;12.106;2023-02-28T12:23:56;1.83;;;1.20;;
15818;SDS011;8010;53.986;12.106;2023-02-28T12:32:09;4.60;;;1.27;;
15818;SDS011;8010;53.986;12.106;2023-02-28T12:34:41;2.50;;;1.30;;
15818;SDS011;8010;53.986;12.106;2023-02-28T12:37:13;3.37;;;1.60;;
15818;SDS011;8010;53.986;12.106;2023-02-28T12:39:51;4.90;;;1.83;;
15818;SDS011;8010;53.986;12.106;2023-02-28T12:42:31;2.50;;;1.37;;
15818;SDS011;8010;53.986;12.106;2023-02-28T12:45:02;3.10;;;1.70;;
15818;SDS011;8010;53.986;12.106;2023-02-28T12:47:35;2.43;;;1.60;;
15818;SDS011;8010;53.986;12.106;2023-02-28T12:50:06;3.13;;;1.63;;
15818;SDS011;8010;53.986;12.106;2023-02-28T12:52:52;3.07;;;1.80;;
15818;SDS011;8010;53.986;12.106;2023-02-28T13:01:03;3.23;;;1.63;;
15818;SDS011;8010;53.986;12.106;2023-02-28T13:04:02;2.80;;;1.83;;
15818;SDS011;8010;53.986;12.106;2023-02-28T13:06:38;3.73;;;1.90;;
15818;SDS011;8010;53.986;12.106;2023-02-28T13:09:16;2.30;;;1.90;;
15818;SDS011;8010;53.986;12.106;2023-02-28T13:11:44;2.87;;;1.80;;
15818;SDS011;8010;53.986;12.106;2023-02-28T13:19:40;3.93;;;1.77;;
15818;SDS011;8010;53.986;12.106;2023-02-28T13:22:47;3.83;;;2.27;;
15818;SDS011;8010;53.986;12.106;2023-02-28T13:27:47;2.50;;;1.77;;
15818;SDS011;8010;53.986;12.106;2023-02-28T13:36:09;4.07;;;2.30;;
15818;SDS011;8010;53.986;12.106;2023-02-28T13:38:48;5.40;;;2.00;;
15818;SDS011;8010;53.986;12.106;2023-02-28T14:03:01;2.50;;;1.63;;
15818;SDS011;8010;53.986;12.106;2023-02-28T14:06:07;4.50;;;2.03;;
15818;SDS011;8010;53.986;12.106;2023-02-28T14:08:52;2.87;;;1.97;;
15818;SDS011;8010;53.986;12.106;2023-02-28T14:11:34;3.53;;;2.13;;
15818;SDS011;8010;53.986;12.106;2023-02-28T14:14:02;3.20;;;1.90;;
15818;SDS011;8010;53.986;12.106;2023-02-28T14:19:25;3.60;;;1.97;;
15818;SDS011;8010;53.986;12.106;2023-02-28T14:27:14;3.33;;;1.80;;
15818;SDS011;8010;53.986;12.106;2023-02-28T14:32:23;4.03;;;1.90;;
15818;SDS011;8010;53.986;12.106;2023-02-28T14:35:17;2.10;;;1.53;;
15818;SDS011;8010;53.986;12.106;2023-02-28T14:38:02;2.57;;;1.70;;
15818;SDS011;8010;53.986;12.106;2023-02-28T14:40:35;3.50;;;1.80;;
15818;SDS011;8010;53.986;12.106;2023-02-28T14:43:04;3.30;;;1.50;;
15818;SDS011;8010;53.986;12.106;2023-02-28T14:45:31;3.13;;;1.43;;
15818;SDS011;8010;53.986;12.106;2023-02-28T14:47:59;4.90;;;2.00;;
15818;SDS011;8010;53.986;12.106;2023-02-28T14:50:27;4.83;;;2.37;;
15818;SDS011;8010;53.986;12.106;2023-02-28T14:52:56;4.20;;;1.60;;
15818;SDS011;8010;53.986;12.106;2023-02-28T14:55:25;3.23;;;1.37;;
15818;SDS011;8010;53.986;12.106;2023-02-28T14:57:53;3.17;;;1.40;;
15818;SDS011;8010;53.986;12.106;2023-02-28T15:02:54;3.77;;;1.80;;
15818;SDS011;8010;53.986;12.106;2023-02-28T15:05:23;4.23;;;2.10;;
15818;SDS011;8010;53.986;12.106;2023-02-28T15:08:00;3.37;;;1.40;;
15818;SDS011;8010;53.986;12.106;2023-02-28T15:10:27;2.10;;;1.27;;
15818;SDS011;8010;53.986;12.106;2023-02-28T15:12:54;2.20;;;1.27;;
15818;SDS011;8010;53.986;12.106;2023-02-28T15:15:26;2.70;;;1.40;;
15818;SDS011;8010;53.986;12.106;2023-02-28T15:18:23;2.90;;;1.50;;
15818;SDS011;8010;53.986;12.106;2023-02-28T15:21:15;2.77;;;1.20;;
15818;SDS011;8010;53.986;12.106;2023-02-28T15:23:49;4.30;;;1.60;;
15818;SDS011;8010;53.986;12.106;2023-02-28T15:26:23;3.70;;;1.60;;
15818;SDS011;8010;53.986;12.106;2023-02-28T15:28:58;1.63;;;1.10;;
15818;SDS011;8010;53.986;12.106;2023-02-28T15:31:48;2.50;;;1.67;;
15818;SDS011;8010;53.986;12.106;2023-02-28T15:34:35;2.77;;;1.80;;
15818;SDS011;8010;53.986;12.106;2023-02-28T15:37:23;3.20;;;1.80;;
15818;SDS011;8010;53.986;12.106;2023-02-28T15:40:16;2.57;;;1.53;;
15818;SDS011;8010;53.986;12.106;2023-02-28T15:45:51;1.63;;;1.20;;
15818;SDS011;8010;53.986;12.106;2023-02-28T15:48:22;1.30;;;0.90;;
15818;SDS011;8010;53.986;12.106;2023-02-28T15:50:54;3.33;;;1.20;;
15818;SDS011;8010;53.986;12.106;2023-02-28T15:53:30;1.73;;;0.80;;
15818;SDS011;8010;53.986;12.106;2023-02-28T15:56:08;2.70;;;0.90;;
15818;SDS011;8010;53.986;12.106;2023-02-28T15:59:00;2.27;;;1.10;;
15818;SDS011;8010;53.986;12.106;2023-02-28T16:01:30;2.10;;;1.00;;
15818;SDS011;8010;53.986;12.106;2023-02-28T16:04:00;2.40;;;0.90;;
15818;SDS011;8010;53.986;12.106;2023-02-28T16:09:05;2.03;;;1.37;;
15818;SDS011;8010;53.986;12.106;2023-02-28T16:11:33;1.53;;;0.93;;
15818;SDS011;8010;53.986;12.106;2023-02-28T16:14:02;5.13;;;0.90;;
15818;SDS011;8010;53.986;12.106;2023-02-28T16:16:28;2.13;;;1.00;;
15818;SDS011;8010;53.986;12.106;2023-02-28T16:18:55;2.73;;;0.90;;
15818;SDS011;8010;53.986;12.106;2023-02-28T16:21:21;3.63;;;1.30;;
15818;SDS011;8010;53.986;12.106;2023-02-28T16:23:46;3.43;;;0.90;;
15818;SDS011;8010;53.986;12.106;2023-02-28T16:26:16;1.77;;;0.90;;
15818;SDS011;8010;53.986;12.106;2023-02-28T16:28:46;3.13;;;1.20;;
15818;SDS011;8010;53.986;12.106;2023-02-28T16:31:11;1.90;;;1.13;;
15818;SDS011;8010;53.986;12.106;2023-02-28T16:33:41;3.60;;;1.00;;
15818;SDS011;8010;53.986;12.106;2023-02-28T16:36:18;4.00;;;1.20;;
15818;SDS011;8010;53.986;12.106;2023-02-28T16:38:46;1.77;;;0.90;;
15818;SDS011;8010;53.986;12.106;2023-02-28T16:41:12;2.57;;;1.00;;
15818;SDS011;8010;53.986;12.106;2023-02-28T16:43:43;2.53;;;1.20;;
15818;SDS011;8010;53.986;12.106;2023-02-28T16:46:10;3.03;;;1.53;;
15818;SDS011;8010;53.986;12.106;2023-02-28T16:48:37;3.63;;;1.40;;
15818;SDS011;8010;53.986;12.106;2023-02-28T16:51:04;4.53;;;1.23;;
15818;SDS011;8010;53.986;12.106;2023-02-28T16:53:30;2.60;;;1.30;;
15818;SDS011;8010;53.986;12.106;2023-02-28T16:55:55;3.43;;;1.63;;
15818;SDS011;8010;53.986;12.106;2023-02-28T16:58:21;3.37;;;1.43;;
15818;SDS011;8010;53.986;12.106;2023-02-28T17:00:50;5.80;;;2.60;;
15818;SDS011;8010;53.986;12.106;2023-02-28T17:05:47;3.47;;;2.53;;
15818;SDS011;8010;53.986;12.106;2023-02-28T17:08:13;5.27;;;1.63;;
15818;SDS011;8010;53.986;12.106;2023-02-28T17:10:38;2.30;;;1.80;;
15818;SDS011;8010;53.986;12.106;2023-02-28T17:13:04;3.13;;;1.60;;
15818;SDS011;8010;53.986;12.106;2023-02-28T17:15:32;1.83;;;1.30;;
15818;SDS011;8010;53.986;12.106;2023-02-28T17:17:58;2.10;;;1.57;;
15818;SDS011;8010;53.986;12.106;2023-02-28T17:20:23;5.67;;;2.00;;
15818;SDS011;8010;53.986;12.106;2023-02-28T17:22:51;5.27;;;3.40;;
15818;SDS011;8010;53.986;12.106;2023-02-28T17:25:20;4.30;;;2.77;;
15818;SDS011;8010;53.986;12.106;2023-02-28T17:27:46;3.97;;;2.90;;
15818;SDS011;8010;53.986;12.106;2023-02-28T17:30:16;3.17;;;2.57;;
15818;SDS011;8010;53.986;12.106;2023-02-28T17:32:44;3.53;;;1.70;;